Time;durP1;ratioP1;P1;durP2;ratioP2;P2;SDS_P1;SDS_P2;PMS_P1;PMS_P2;Temp;Humidity;BMP_temperature;BMP_pressure;BME280_temperature;BME280_humidity;BME280_pressure;Samples;Min_cycle;Max_cycle;Signal;HPM_P1;HPM_P2
2022/08/23 00:02:02;;;;;;;3.60;2.03;;;21.80;58.30;;;;;;10508723;28;20888;-70
2022/08/23 00:07:04;;;;;;;6.43;2.13;;;21.70;58.30;;;;;;10513476;28;20298;-72
2022/08/23 00:12:17;;;;;;;5.50;2.50;;;21.70;58.60;;;;;;10518848;28;20264;-72
2022/08/23 00:17:19;;;;;;;2.87;2.00;;;21.50;59.10;;;;;;10512305;28;20252;-71
2022/08/23 00:22:20;;;;;;;4.07;2.10;;;21.40;59.40;;;;;;10506092;28;20237;-71
2022/08/23 00:27:20;;;;;;;5.17;2.27;;;21.20;59.80;;;;;;10512325;28;20309;-71
2022/08/23 00:32:32;;;;;;;3.10;2.10;;;21.10;60.00;;;;;;10519274;28;20245;-72
2022/08/23 00:37:32;;;;;;;3.47;2.37;;;21.00;61.30;;;;;;10513405;28;20218;-72
2022/08/23 00:47:56;;;;;;;3.07;2.40;;;21.00;60.70;;;;;;10516598;28;20673;-72
2022/08/23 00:53:02;;;;;;;6.67;2.73;;;21.00;61.00;;;;;;10512893;28;20217;-72
2022/08/23 00:58:03;;;;;;;5.27;2.30;;;20.90;61.40;;;;;;10513334;28;20219;-72
2022/08/23 01:03:10;;;;;;;6.00;1.93;;;20.90;61.60;;;;;;10518534;28;20234;-72
2022/08/23 01:08:10;;;;;;;3.57;2.27;;;20.80;61.80;;;;;;10518934;28;20218;-72
2022/08/23 01:13:22;;;;;;;3.83;1.90;;;20.70;62.60;;;;;;10519867;28;20230;-71
2022/08/23 01:18:25;;;;;;;6.83;2.13;;;20.60;63.30;;;;;;10514816;28;20234;-70
2022/08/23 01:23:40;;;;;;;4.13;2.20;;;20.60;63.40;;;;;;10524551;28;20227;-71
2022/08/23 01:28:42;;;;;;;5.23;2.23;;;20.50;64.00;;;;;;10520343;28;20303;-71
2022/08/23 01:33:46;;;;;;;4.60;2.03;;;20.40;64.20;;;;;;10523318;28;20282;-71
2022/08/23 01:38:47;;;;;;;6.70;2.10;;;20.30;64.40;;;;;;10522198;28;20306;-73
2022/08/23 01:43:48;;;;;;;2.97;2.13;;;20.30;65.00;;;;;;10515439;28;20219;-72
2022/08/23 01:48:50;;;;;;;5.30;2.50;;;20.20;65.20;;;;;;10517816;28;20210;-72
2022/08/23 01:53:50;;;;;;;5.23;2.23;;;20.20;65.40;;;;;;10520518;28;20241;-71
2022/08/23 01:58:51;;;;;;;4.97;2.03;;;20.20;65.40;;;;;;10521299;28;20219;-71
2022/08/23 02:03:52;;;;;;;3.57;1.90;;;20.20;65.70;;;;;;10516887;28;20786;-70
2022/08/23 02:09:01;;;;;;;2.93;1.77;;;20.10;65.90;;;;;;10519066;28;20232;-71
2022/08/23 02:14:06;;;;;;;5.20;2.20;;;20.00;66.20;;;;;;10518977;28;20215;-70
2022/08/23 02:19:09;;;;;;;3.83;1.90;;;20.00;66.50;;;;;;10522135;28;20230;-71
2022/08/23 02:24:14;;;;;;;3.67;2.07;;;19.90;66.90;;;;;;10515287;28;20229;-71
2022/08/23 02:29:17;;;;;;;4.20;2.17;;;19.90;67.10;;;;;;10516939;28;20215;-70
2022/08/23 02:34:18;;;;;;;2.43;1.80;;;19.80;67.60;;;;;;10523692;28;20231;-70
2022/08/23 02:39:22;;;;;;;4.03;2.30;;;19.70;67.90;;;;;;10516469;28;20241;-72
2022/08/23 02:44:23;;;;;;;6.60;2.27;;;19.70;68.30;;;;;;10507914;28;20288;-72
2022/08/23 02:49:24;;;;;;;3.33;2.00;;;19.70;68.50;;;;;;10523755;28;20287;-70
2022/08/23 02:54:24;;;;;;;3.43;1.90;;;19.60;68.70;;;;;;10512881;28;20230;-70
2022/08/23 02:59:25;;;;;;;3.63;2.23;;;19.60;69.10;;;;;;10523399;28;20218;-71
2022/08/23 03:04:26;;;;;;;2.90;2.03;;;19.60;69.20;;;;;;10515704;28;20714;-72
2022/08/23 03:09:26;;;;;;;3.90;2.10;;;19.50;69.40;;;;;;10522125;28;20218;-72
2022/08/23 03:14:27;;;;;;;5.50;1.83;;;19.60;69.70;;;;;;10514381;28;20772;-72
2022/08/23 03:19:28;;;;;;;5.73;2.07;;;19.50;69.70;;;;;;10515802;28;20356;-70
2022/08/23 03:24:29;;;;;;;3.40;2.07;;;19.40;70.00;;;;;;10519829;28;20234;-70
2022/08/23 03:29:30;;;;;;;6.40;2.20;;;19.40;70.50;;;;;;10515633;28;20588;-70
2022/08/23 03:34:34;;;;;;;5.30;1.97;;;19.30;70.90;;;;;;10519303;28;20333;-70
2022/08/23 03:39:35;;;;;;;4.30;2.10;;;19.20;71.50;;;;;;10515190;28;20223;-72
2022/08/23 03:44:35;;;;;;;4.20;2.30;;;19.20;71.90;;;;;;10509195;28;20237;-71
2022/08/23 03:49:36;;;;;;;3.80;2.30;;;19.10;72.10;;;;;;10515769;28;20218;-71
2022/08/23 03:54:37;;;;;;;4.17;2.20;;;19.10;72.30;;;;;;10518462;28;20311;-70
2022/08/23 03:59:39;;;;;;;5.07;2.33;;;19.10;72.70;;;;;;10514571;28;20291;-69
2022/08/23 04:04:40;;;;;;;4.53;2.60;;;19.10;72.80;;;;;;10517836;28;20754;-71
2022/08/23 04:09:40;;;;;;;6.10;2.30;;;19.10;73.10;;;;;;10515183;28;20249;-69
2022/08/23 04:14:41;;;;;;;6.83;2.93;;;19.00;73.10;;;;;;10516147;28;20299;-70
2022/08/23 04:19:42;;;;;;;3.40;2.33;;;19.00;73.70;;;;;;10515144;28;20340;-74
2022/08/23 04:24:43;;;;;;;4.70;2.13;;;19.00;73.70;;;;;;10519181;28;20230;-73
2022/08/23 04:29:44;;;;;;;3.33;2.20;;;19.00;73.70;;;;;;10518093;28;20222;-71
2022/08/23 04:34:46;;;;;;;4.93;2.10;;;19.00;73.80;;;;;;10514287;28;20233;-73
2022/08/23 04:45:07;;;;;;;3.67;2.00;;;19.10;73.80;;;;;;10511482;28;20222;-71
2022/08/23 04:50:07;;;;;;;9.60;2.80;;;19.10;73.70;;;;;;10517249;28;20185;-70
2022/08/23 04:55:08;;;;;;;5.43;2.40;;;19.10;73.70;;;;;;10510096;28;20189;-71
2022/08/23 05:00:11;;;;;;;3.77;2.27;;;19.10;73.90;;;;;;10512747;28;20187;-71
2022/08/23 05:05:13;;;;;;;7.00;2.70;;;19.20;73.70;;;;;;10518779;28;20182;-71
2022/08/23 05:10:15;;;;;;;6.47;2.93;;;19.30;73.60;;;;;;10519089;28;20188;-71
2022/08/23 05:15:16;;;;;;;7.27;2.93;;;19.40;73.60;;;;;;10511759;28;20183;-71
2022/08/23 05:20:17;;;;;;;11.43;3.27;;;19.40;73.20;;;;;;10510195;28;20630;-72
2022/08/23 05:25:18;;;;;;;5.77;2.63;;;19.50;73.30;;;;;;10519501;28;20646;-72
2022/08/23 05:30:18;;;;;;;3.73;2.40;;;19.70;72.80;;;;;;10517563;28;20186;-72
2022/08/23 05:35:19;;;;;;;5.00;2.27;;;19.80;72.30;;;;;;10510051;28;20206;-72
2022/08/23 05:40:20;;;;;;;7.73;2.30;;;20.00;72.00;;;;;;10516600;28;20175;-71
2022/08/23 05:45:20;;;;;;;4.23;2.20;;;21.00;69.00;;;;;;10505069;28;20179;-72
2022/08/23 05:50:21;;;;;;;6.67;2.37;;;21.80;66.50;;;;;;10511642;28;20268;-72
2022/08/23 05:55:22;;;;;;;5.73;3.10;;;22.20;64.00;;;;;;10513678;28;20190;-72
2022/08/23 06:00:23;;;;;;;5.50;2.63;;;22.00;64.10;;;;;;10526526;28;20273;-71
2022/08/23 06:05:24;;;;;;;7.07;2.97;;;22.90;62.40;;;;;;10517946;28;20306;-71
2022/08/23 06:10:25;;;;;;;7.10;2.80;;;23.20;60.10;;;;;;10525672;28;20213;-71
2022/08/23 06:15:26;;;;;;;6.43;2.97;;;24.60;57.60;;;;;;10519499;28;20215;-72
2022/08/23 06:20:26;;;;;;;3.83;2.40;;;26.90;52.60;;;;;;10525765;28;20216;-72
2022/08/23 06:25:31;;;;;;;4.63;2.47;;;29.10;49.60;;;;;;10518156;28;20215;-72
2022/08/23 06:30:31;;;;;;;5.67;2.27;;;31.10;44.50;;;;;;10523545;28;20225;-72
2022/08/23 06:35:32;;;;;;;8.00;2.63;;;32.40;42.60;;;;;;10517856;28;20692;-72
2022/08/23 06:40:36;;;;;;;4.10;2.43;;;33.60;40.00;;;;;;10516358;28;20701;-72
2022/08/23 06:45:36;;;;;;;2.77;2.27;;;34.80;38.40;;;;;;10507276;28;20298;-72
2022/08/23 06:50:37;;;;;;;4.17;2.07;;;35.60;37.10;;;;;;10522578;28;20298;-72
2022/08/23 06:55:37;;;;;;;5.33;2.47;;;36.10;36.20;;;;;;10514889;28;20225;-72
2022/08/23 07:00:38;;;;;;;6.20;2.80;;;34.30;37.20;;;;;;10517638;28;20284;-73
2022/08/23 07:05:38;;;;;;;4.63;2.70;;;31.10;41.10;;;;;;10523275;28;20691;-72
2022/08/23 07:10:39;;;;;;;7.00;2.43;;;28.60;45.50;;;;;;10515551;28;20225;-71
2022/08/23 07:15:40;;;;;;;4.97;2.50;;;27.50;48.70;;;;;;10519176;28;20214;-72
2022/08/23 07:20:40;;;;;;;8.43;2.57;;;27.00;49.00;;;;;;10522725;28;20234;-73
2022/08/23 07:25:41;;;;;;;6.77;2.90;;;26.70;49.90;;;;;;10513720;28;20223;-72
2022/08/23 07:30:41;;;;;;;4.30;2.20;;;26.50;50.50;;;;;;10517523;28;20271;-73
2022/08/23 07:35:49;;;;;;;3.87;1.80;;;26.60;50.50;;;;;;10516671;28;20215;-72
2022/08/23 07:40:50;;;;;;;3.70;2.10;;;27.10;50.50;;;;;;10512836;28;20227;-73
2022/08/23 07:45:50;;;;;;;12.00;2.70;;;30.70;44.90;;;;;;10521254;28;20665;-73
2022/08/23 07:50:57;;;;;;;3.97;2.03;;;33.60;40.10;;;;;;10522271;28;20230;-72
2022/08/23 07:55:58;;;;;;;5.70;2.20;;;36.10;36.50;;;;;;10517873;28;20221;-72
2022/08/23 08:01:14;;;;;;;5.90;2.10;;;38.00;33.30;;;;;;10519835;28;20305;-73
2022/08/23 08:06:20;;;;;;;5.87;2.40;;;39.20;31.30;;;;;;10513468;28;20688;-72
2022/08/23 08:11:23;;;;;;;2.80;2.00;;;40.10;30.00;;;;;;10512536;28;20696;-73
2022/08/23 08:16:34;;;;;;;3.40;2.27;;;41.10;29.20;;;;;;10505567;28;20218;-73
2022/08/23 08:21:35;;;;;;;3.90;2.33;;;42.20;28.10;;;;;;10520760;28;20712;-73
2022/08/23 08:26:36;;;;;;;5.37;2.60;;;43.20;27.80;;;;;;10514385;28;20211;-73
2022/08/23 08:31:39;;;;;;;6.33;2.67;;;43.70;26.80;;;;;;10517814;28;20294;-73
2022/08/23 08:36:43;;;;;;;3.60;2.33;;;42.20;27.10;;;;;;10514388;28;20219;-73
2022/08/23 08:42:13;;;;;;;4.47;2.27;;;39.00;28.70;;;;;;10514671;28;20693;-73
2022/08/23 08:47:21;;;;;;;7.03;2.57;;;38.90;30.20;;;;;;10489826;28;20243;-72
2022/08/23 08:53:01;;;;;;;5.30;2.70;;;40.20;29.50;;;;;;10503862;28;20215;-72
2022/08/23 08:58:05;;;;;;;2.97;2.33;;;41.70;27.90;;;;;;10424054;28;20314;-72
2022/08/23 09:03:13;;;;;;;4.43;2.53;;;43.20;27.00;;;;;;10519897;28;20223;-72
2022/08/23 09:08:23;;;;;;;4.67;2.40;;;43.60;26.20;;;;;;10518734;28;20211;-72
2022/08/23 09:13:54;;;;;;;3.73;2.77;;;43.20;26.50;;;;;;10500367;28;20234;-73
2022/08/23 09:18:54;;;;;;;3.40;2.40;;;42.30;27.20;;;;;;10520603;28;20241;-72
2022/08/23 09:23:55;;;;;;;2.60;2.40;;;42.60;27.10;;;;;;10514247;28;20245;-73
2022/08/23 09:29:19;;;;;;;5.45;2.60;;;43.80;26.30;;;;;;10515456;28;20215;-72
2022/08/23 09:34:29;;;;;;;3.47;2.60;;;44.80;25.50;;;;;;10518980;28;20307;-73
2022/08/23 09:44:40;;;;;;;5.80;2.40;;;45.70;24.70;;;;;;10523825;28;20532;-72
2022/08/23 09:49:42;;;;;;;5.85;2.60;;;42.70;26.20;;;;;;10511802;28;20246;-73
2022/08/23 09:54:52;;;;;;;3.17;2.42;;;44.30;26.00;;;;;;10509577;28;20214;-72
2022/08/23 09:59:55;;;;;;;4.43;2.58;;;44.90;25.20;;;;;;10506009;28;20577;-72
2022/08/23 10:04:57;;;;;;;5.25;2.35;;;46.40;24.30;;;;;;10509419;28;20242;-72
2022/08/23 10:10:17;;;;;;;5.93;2.85;;;45.10;24.20;;;;;;10510279;28;20211;-72
2022/08/23 10:15:20;;;;;;;6.07;2.70;;;42.00;26.30;;;;;;10505337;28;20268;-73
2022/08/23 10:20:40;;;;;;;4.50;2.50;;;42.50;26.60;;;;;;10513491;28;20199;-73
2022/08/23 10:25:47;;;;;;;4.90;2.77;;;42.80;26.90;;;;;;10501893;28;20314;-72
2022/08/23 10:31:10;;;;;;;3.03;2.20;;;44.10;25.30;;;;;;10509650;28;20309;-72
2022/08/23 10:36:25;;;;;;;3.58;2.53;;;44.60;25.30;;;;;;10511449;28;20637;-72
2022/08/23 10:41:50;;;;;;;7.55;2.72;;;45.70;24.30;;;;;;10497638;28;20238;-72
2022/08/23 10:47:29;;;;;;;4.30;2.42;;;45.10;24.70;;;;;;10508737;28;20214;-73
2022/08/23 10:53:00;;;;;;;3.08;2.70;;;45.00;24.70;;;;;;10486716;28;20223;-73
2022/08/23 10:58:05;;;;;;;3.60;2.40;;;45.40;25.10;;;;;;10478640;28;20223;-72
2022/08/23 11:03:28;;;;;;;3.22;2.70;;;47.90;23.30;;;;;;10477540;28;20255;-72
2022/08/23 11:08:35;;;;;;;3.60;2.53;;;47.10;23.00;;;;;;10469692;28;20234;-72
2022/08/23 11:13:51;;;;;;;6.97;2.60;;;41.80;26.80;;;;;;10481559;28;20215;-72
2022/08/23 11:18:52;;;;;;;3.50;2.40;;;39.10;29.80;;;;;;10478843;28;20320;-71
2022/08/23 11:24:15;;;;;;;4.33;2.90;;;37.40;31.00;;;;;;10478868;28;20590;-72
2022/08/23 11:29:22;;;;;;;3.80;2.60;;;36.30;32.40;;;;;;10452562;28;20223;-73
2022/08/23 11:34:29;;;;;;;3.50;2.77;;;35.60;33.70;;;;;;10474953;28;20289;-73
2022/08/23 11:39:56;;;;;;;4.33;2.80;;;35.00;34.00;;;;;;10482238;28;20207;-72
2022/08/23 11:45:00;;;;;;;5.33;2.90;;;34.80;34.10;;;;;;10475007;28;20224;-72
2022/08/23 11:50:14;;;;;;;10.00;2.90;;;34.50;34.30;;;;;;10474979;28;20265;-72
2022/08/23 11:55:33;;;;;;;3.63;2.50;;;34.10;34.60;;;;;;10482025;28;20223;-71
2022/08/23 12:00:52;;;;;;;4.63;2.80;;;33.90;35.40;;;;;;10469332;28;20223;-72
2022/08/23 12:05:53;;;;;;;4.57;2.40;;;34.00;34.60;;;;;;10475834;28;20222;-72
2022/08/23 12:10:59;;;;;;;5.80;3.17;;;34.10;34.40;;;;;;10473748;28;20226;-72
2022/08/23 12:16:17;;;;;;;6.10;2.83;;;34.00;34.40;;;;;;10473887;28;20588;-72
2022/08/23 12:21:17;;;;;;;4.03;2.73;;;33.90;34.70;;;;;;10480180;28;20214;-72
2022/08/23 12:26:25;;;;;;;5.97;2.90;;;33.80;34.40;;;;;;10471393;28;20224;-73
2022/08/23 12:32:02;;;;;;;4.30;2.63;;;34.00;34.80;;;;;;10463734;28;20737;-72
2022/08/23 12:37:18;;;;;;;7.33;3.00;;;34.30;33.90;;;;;;10472547;28;20249;-71
2022/08/23 12:42:33;;;;;;;3.57;2.73;;;34.30;34.20;;;;;;10478101;28;20235;-72
2022/08/23 12:47:34;;;;;;;6.53;2.90;;;34.30;34.10;;;;;;10456146;28;20212;-72
2022/08/23 12:52:36;;;;;;;4.50;2.80;;;34.30;34.20;;;;;;10477589;28;20318;-71
2022/08/23 12:57:39;;;;;;;3.37;2.43;;;34.20;34.10;;;;;;10470424;28;20211;-71
2022/08/23 13:02:53;;;;;;;3.93;3.13;;;34.30;33.50;;;;;;10473674;28;20227;-72
2022/08/23 13:07:54;;;;;;;2.93;2.60;;;34.30;33.90;;;;;;10474116;28;20297;-71
2022/08/23 13:12:55;;;;;;;4.47;3.10;;;34.20;34.00;;;;;;10470014;28;20255;-73
2022/08/23 13:18:00;;;;;;;3.93;2.90;;;34.30;33.60;;;;;;10475423;28;20214;-72
2022/08/23 13:23:04;;;;;;;3.23;2.73;;;34.00;33.50;;;;;;10473450;28;20217;-72
2022/08/23 13:28:19;;;;;;;5.37;2.90;;;33.50;34.20;;;;;;10478398;28;20216;-72
2022/08/23 13:33:20;;;;;;;5.03;2.80;;;33.40;34.40;;;;;;10477405;28;20233;-71
2022/08/23 13:38:29;;;;;;;7.00;2.77;;;33.10;35.30;;;;;;10478397;28;20211;-72
2022/08/23 13:43:37;;;;;;;6.03;3.30;;;32.90;36.80;;;;;;10464814;28;20632;-72
2022/08/23 13:49:03;;;;;;;4.80;2.73;;;32.70;36.40;;;;;;10468780;28;20220;-71
2022/08/23 13:54:10;;;;;;;5.20;2.97;;;32.20;37.00;;;;;;10471324;28;20728;-72
2022/08/23 13:59:33;;;;;;;4.60;2.70;;;32.10;37.30;;;;;;10469138;28;20747;-72
2022/08/23 14:04:34;;;;;;;3.73;2.93;;;32.20;37.40;;;;;;10472174;28;20231;-72
2022/08/23 14:09:37;;;;;;;4.63;2.80;;;32.20;36.80;;;;;;10476158;28;20227;-72
2022/08/23 14:14:37;;;;;;;7.07;3.00;;;32.30;37.20;;;;;;10483092;28;20729;-72
2022/08/23 14:19:38;;;;;;;5.17;2.90;;;32.40;36.20;;;;;;10470525;28;20247;-72
2022/08/23 14:24:39;;;;;;;4.97;2.87;;;32.00;37.00;;;;;;10475580;28;20272;-71
2022/08/23 14:29:40;;;;;;;6.90;2.83;;;32.00;36.70;;;;;;10468701;28;20215;-70
2022/08/23 14:34:41;;;;;;;3.60;2.83;;;32.00;37.20;;;;;;10481593;28;20302;-72
2022/08/23 14:39:41;;;;;;;3.47;2.63;;;32.00;36.90;;;;;;10478267;28;20234;-72
2022/08/23 14:44:42;;;;;;;5.43;2.77;;;32.20;36.70;;;;;;10482226;28;20223;-71
2022/08/23 14:49:43;;;;;;;5.87;2.80;;;32.10;36.70;;;;;;10478644;28;20224;-72
2022/08/23 14:54:43;;;;;;;7.67;2.90;;;32.20;37.10;;;;;;10481079;28;20227;-71
2022/08/23 14:59:44;;;;;;;8.10;3.03;;;32.30;36.70;;;;;;10485008;28;20246;-72
2022/08/23 15:04:45;;;;;;;5.07;2.80;;;32.50;36.80;;;;;;10479434;28;20215;-72
2022/08/23 15:09:53;;;;;;;5.17;2.80;;;32.40;36.40;;;;;;10482990;28;20208;-72
2022/08/23 15:14:53;;;;;;;12.60;3.57;;;32.50;36.70;;;;;;10479509;28;20695;-71
2022/08/23 15:19:54;;;;;;;6.63;3.03;;;32.50;36.10;;;;;;10480689;28;20309;-71
2022/08/23 15:24:54;;;;;;;4.97;2.63;;;32.20;36.20;;;;;;10478563;28;20713;-71
2022/08/23 15:29:55;;;;;;;5.13;2.87;;;32.10;36.30;;;;;;10493007;28;20626;-72
2022/08/23 15:34:56;;;;;;;3.33;2.80;;;32.20;36.70;;;;;;10479755;28;20294;-71
2022/08/23 15:39:56;;;;;;;3.10;2.80;;;32.20;37.00;;;;;;10481185;28;20690;-71
2022/08/23 15:44:57;;;;;;;7.30;3.40;;;32.20;37.00;;;;;;10474694;28;20234;-71
2022/08/23 15:49:58;;;;;;;6.57;2.80;;;32.10;36.90;;;;;;10476471;28;20761;-72
2022/08/23 15:54:59;;;;;;;9.40;3.00;;;31.90;37.10;;;;;;10477395;28;20629;-71
2022/08/23 15:59:59;;;;;;;4.77;2.57;;;31.80;37.10;;;;;;10473316;28;20230;-72
2022/08/23 16:05:00;;;;;;;6.13;3.20;;;31.60;37.40;;;;;;10478048;28;20223;-71
2022/08/23 16:10:05;;;;;;;4.63;3.23;;;31.50;37.70;;;;;;10474693;28;20224;-72
2022/08/23 16:15:06;;;;;;;3.20;2.47;;;31.30;37.50;;;;;;10477899;28;20729;-72
2022/08/23 16:20:09;;;;;;;6.83;2.63;;;31.20;37.90;;;;;;10480626;28;20240;-73
2022/08/23 16:25:10;;;;;;;4.10;2.50;;;31.10;38.00;;;;;;10477696;28;20727;-71
2022/08/23 16:30:12;;;;;;;4.10;2.50;;;31.00;37.80;;;;;;10466312;28;20245;-72
2022/08/23 16:35:13;;;;;;;4.77;2.37;;;30.80;38.00;;;;;;10472407;28;20230;-72
2022/08/23 16:40:15;;;;;;;8.23;2.97;;;30.70;38.00;;;;;;10470387;28;20247;-72
2022/08/23 16:45:16;;;;;;;6.70;2.70;;;30.50;38.10;;;;;;10472110;28;20676;-72
2022/08/23 16:50:19;;;;;;;4.00;2.40;;;30.40;38.70;;;;;;10471957;28;20302;-69
2022/08/23 16:55:20;;;;;;;4.47;2.73;;;30.20;39.00;;;;;;10470565;28;20635;-70
2022/08/23 17:00:21;;;;;;;3.10;2.40;;;30.10;39.00;;;;;;10467409;28;20184;-70
2022/08/23 17:05:22;;;;;;;4.97;2.57;;;30.00;39.20;;;;;;10466105;28;20188;-70
2022/08/23 17:10:24;;;;;;;4.10;2.60;;;29.90;39.00;;;;;;10454035;28;20208;-69
2022/08/23 17:15:29;;;;;;;9.60;3.00;;;29.80;39.30;;;;;;10469142;28;20212;-69
2022/08/23 17:20:34;;;;;;;5.37;2.63;;;29.60;39.60;;;;;;10471580;28;20286;-70
2022/08/23 17:25:36;;;;;;;5.00;2.87;;;29.50;40.00;;;;;;10459292;28;20222;-70
2022/08/23 17:30:36;;;;;;;4.27;2.60;;;29.40;40.40;;;;;;10458459;28;20223;-69
2022/08/23 17:35:37;;;;;;;3.53;2.40;;;29.20;40.80;;;;;;10466175;28;20594;-68
2022/08/23 17:40:39;;;;;;;6.20;2.50;;;29.00;41.20;;;;;;10462582;28;20296;-69
2022/08/23 17:45:49;;;;;;;3.50;2.50;;;28.80;41.50;;;;;;10469133;28;20728;-69
2022/08/23 17:50:54;;;;;;;3.23;2.57;;;28.60;42.00;;;;;;10469267;28;20231;-68
2022/08/23 17:55:56;;;;;;;4.60;3.13;;;28.30;42.40;;;;;;10464173;28;20227;-70
2022/08/23 18:00:57;;;;;;;4.63;2.93;;;28.20;43.20;;;;;;10463670;28;20314;-69
2022/08/23 18:05:58;;;;;;;4.73;3.03;;;27.90;43.80;;;;;;10482186;28;20317;-69
2022/08/23 18:11:01;;;;;;;4.57;3.00;;;27.60;44.60;;;;;;10470028;28;20671;-70
2022/08/23 18:16:02;;;;;;;5.80;3.63;;;27.30;45.40;;;;;;10480224;28;20226;-69
2022/08/23 18:21:06;;;;;;;7.10;3.37;;;27.10;46.10;;;;;;10477661;28;20268;-68
2022/08/23 18:31:47;;;;;;;9.03;3.33;;;26.60;47.70;;;;;;10399982;28;20227;-69
2022/08/23 18:36:48;;;;;;;5.97;3.37;;;26.30;48.40;;;;;;10473530;28;20231;-69
2022/08/23 18:41:51;;;;;;;9.47;3.97;;;26.10;49.00;;;;;;10476273;28;20240;-70
2022/08/23 18:46:52;;;;;;;6.77;3.87;;;25.90;49.80;;;;;;10480878;28;20227;-70
2022/08/23 18:51:53;;;;;;;5.13;4.00;;;25.80;50.40;;;;;;10475223;28;20223;-69
2022/08/23 18:56:59;;;;;;;7.67;4.30;;;25.60;51.00;;;;;;10471483;28;20721;-70
2022/08/23 19:02:00;;;;;;;7.77;4.80;;;25.50;51.40;;;;;;10489188;28;20306;-69
2022/08/23 19:07:02;;;;;;;8.00;4.60;;;25.40;51.80;;;;;;10481024;28;20302;-71
2022/08/23 19:12:05;;;;;;;8.47;5.20;;;25.30;52.20;;;;;;10483882;28;20227;-70
2022/08/23 19:17:06;;;;;;;8.77;6.30;;;25.20;52.80;;;;;;10475628;28;20216;-69
2022/08/23 19:22:07;;;;;;;13.37;7.03;;;25.10;52.80;;;;;;10466154;28;20219;-66
2022/08/23 19:27:08;;;;;;;12.80;6.03;;;25.00;53.20;;;;;;10464045;28;20242;-66
2022/08/23 19:32:12;;;;;;;9.20;5.73;;;25.00;53.80;;;;;;10479062;28;20373;-71
2022/08/23 19:37:19;;;;;;;11.37;6.83;;;25.00;53.40;;;;;;10482602;28;20228;-68
2022/08/23 19:42:19;;;;;;;15.77;8.57;;;24.90;53.30;;;;;;10474484;28;20217;-68
2022/08/23 19:47:20;;;;;;;14.23;9.00;;;24.80;54.00;;;;;;10468687;28;20247;-68
2022/08/23 19:52:30;;;;;;;12.60;7.93;;;24.60;54.80;;;;;;10471596;28;20231;-70
2022/08/23 19:57:31;;;;;;;9.93;6.10;;;24.50;55.10;;;;;;10472172;28;20227;-67
2022/08/23 20:02:35;;;;;;;10.20;6.47;;;24.40;54.90;;;;;;10464715;28;20231;-69
2022/08/23 20:07:36;;;;;;;11.43;5.77;;;24.30;55.60;;;;;;10468197;28;20270;-69
2022/08/23 20:12:38;;;;;;;8.70;5.80;;;24.30;55.30;;;;;;10474012;28;20287;-68
2022/08/23 20:17:40;;;;;;;8.43;5.90;;;24.40;55.70;;;;;;10472574;28;20277;-68
2022/08/23 20:28:03;;;;;;;8.27;5.37;;;24.30;56.20;;;;;;10471338;28;20208;-67
2022/08/23 20:33:05;;;;;;;9.50;5.27;;;24.30;56.30;;;;;;10473617;28;20224;-69
2022/08/23 20:38:06;;;;;;;5.50;4.67;;;24.20;56.50;;;;;;10480446;28;20302;-67
2022/08/23 20:43:06;;;;;;;8.73;5.90;;;24.20;56.70;;;;;;10475426;28;20519;-76
2022/08/23 20:48:07;;;;;;;9.73;5.87;;;24.20;56.60;;;;;;10479184;28;20219;-77
2022/08/23 20:53:11;;;;;;;8.10;5.80;;;24.20;56.50;;;;;;10474896;28;20228;-75
2022/08/23 20:58:12;;;;;;;8.00;5.00;;;24.20;56.20;;;;;;10468707;28;20706;-75
2022/08/23 21:03:13;;;;;;;7.50;4.93;;;24.10;56.20;;;;;;10477192;28;20346;-75
2022/08/23 21:08:14;;;;;;;12.17;5.30;;;24.00;56.80;;;;;;10471442;28;20334;-75
2022/08/23 21:13:14;;;;;;;10.33;4.30;;;23.90;56.80;;;;;;10470994;28;20220;-75
2022/08/23 21:18:15;;;;;;;5.73;4.03;;;23.90;55.90;;;;;;10470569;28;20692;-75
2022/08/23 21:23:16;;;;;;;5.07;3.53;;;24.00;55.00;;;;;;10471058;28;20222;-77
2022/08/23 21:28:18;;;;;;;5.63;3.63;;;24.20;54.10;;;;;;10473310;28;20219;-76
2022/08/23 21:33:20;;;;;;;5.37;3.90;;;24.20;54.10;;;;;;10466134;28;20219;-75
2022/08/23 21:38:21;;;;;;;6.03;3.40;;;24.10;55.50;;;;;;10469805;28;20219;-75
2022/08/23 21:43:22;;;;;;;8.43;4.30;;;24.00;55.20;;;;;;10468782;28;20227;-77
2022/08/23 21:48:23;;;;;;;6.03;3.47;;;23.90;55.70;;;;;;10467889;28;20219;-75
2022/08/23 21:53:24;;;;;;;4.67;3.20;;;23.90;55.60;;;;;;10455778;28;20227;-75
2022/08/23 21:58:24;;;;;;;6.40;3.17;;;23.90;54.40;;;;;;10470727;28;20271;-75
2022/08/23 22:03:26;;;;;;;5.93;3.73;;;23.90;54.30;;;;;;10470231;28;20220;-76
2022/08/23 22:08:30;;;;;;;5.70;4.17;;;23.90;55.60;;;;;;10468397;28;20257;-76
2022/08/23 22:13:32;;;;;;;4.90;4.13;;;23.80;56.90;;;;;;10470009;28;20231;-74
2022/08/23 22:18:33;;;;;;;7.47;5.37;;;23.50;57.40;;;;;;10481080;28;20245;-74
2022/08/23 22:23:36;;;;;;;7.90;4.20;;;23.30;59.30;;;;;;10483531;28;20220;-73
2022/08/23 22:28:36;;;;;;;4.90;4.13;;;23.10;59.10;;;;;;10476323;28;20223;-74
2022/08/23 22:33:38;;;;;;;5.73;4.03;;;23.00;59.00;;;;;;10471296;28;20316;-75
2022/08/23 22:38:39;;;;;;;6.37;4.40;;;22.90;59.10;;;;;;10468570;28;20227;-74
2022/08/23 22:43:40;;;;;;;7.30;4.80;;;22.80;59.80;;;;;;10469842;28;20694;-74
2022/08/23 22:48:41;;;;;;;3.53;3.20;;;22.70;60.80;;;;;;10470350;28;20254;-74
2022/08/23 22:53:45;;;;;;;3.40;2.57;;;22.70;58.90;;;;;;10481905;28;20233;-74
2022/08/23 22:58:47;;;;;;;4.07;2.93;;;22.80;58.40;;;;;;10475454;28;20243;-75
2022/08/23 23:03:49;;;;;;;7.13;2.77;;;22.90;58.50;;;;;;10475295;28;20231;-75
2022/08/23 23:08:51;;;;;;;6.40;2.93;;;22.80;58.60;;;;;;10480689;28;20659;-75
2022/08/23 23:13:52;;;;;;;4.33;2.77;;;22.70;58.80;;;;;;10477575;28;20241;-74
2022/08/23 23:24:25;;;;;;;3.53;2.60;;;22.70;58.50;;;;;;10479434;28;20219;-75
2022/08/23 23:29:26;;;;;;;6.43;2.70;;;22.70;58.60;;;;;;10468806;28;20225;-74
2022/08/23 23:34:27;;;;;;;4.60;2.20;;;22.60;58.40;;;;;;10479112;28;20273;-75
2022/08/23 23:39:27;;;;;;;4.47;2.87;;;22.70;57.60;;;;;;10472427;28;20243;-76
2022/08/23 23:44:28;;;;;;;4.40;2.43;;;22.70;57.80;;;;;;10477351;28;20234;-76
2022/08/23 23:49:30;;;;;;;5.93;2.67;;;22.70;57.50;;;;;;10491848;28;20291;-76
2022/08/23 23:54:32;;;;;;;3.20;2.37;;;22.60;57.50;;;;;;10481826;28;20232;-74
2022/08/23 23:59:33;;;;;;;5.80;2.13;;;22.50;58.00;;;;;;10475082;28;20216;-77
